sensor_id;sensor_type;location;lat;lon;timestamp;temperature;humidity
21312;DHT22;18076;52.154;10.570;2023-01-04T00:01:09;7.00;99.90
21312;DHT22;18076;52.154;10.570;2023-01-04T00:03:37;6.90;99.90
21312;DHT22;18076;52.154;10.570;2023-01-04T00:06:05;7.00;99.90
21312;DHT22;18076;52.154;10.570;2023-01-04T00:08:32;7.10;99.90
21312;DHT22;18076;52.154;10.570;2023-01-04T00:10:59;7.10;99.90
21312;DHT22;18076;52.154;10.570;2023-01-04T00:13:25;7.20;99.90
21312;DHT22;18076;52.154;10.570;2023-01-04T00:15:50;7.20;99.90
21312;DHT22;18076;52.154;10.570;2023-01-04T00:18:16;7.20;99.90
21312;DHT22;18076;52.154;10.570;2023-01-04T00:20:43;7.30;99.90
21312;DHT22;18076;52.154;10.570;2023-01-04T00:23:09;7.30;99.90
21312;DHT22;18076;52.154;10.570;2023-01-04T00:25:37;7.30;99.90
21312;DHT22;18076;52.154;10.570;2023-01-04T00:28:04;7.30;99.90
21312;DHT22;18076;52.154;10.570;2023-01-04T00:30:32;7.30;99.90
21312;DHT22;18076;52.154;10.570;2023-01-04T00:32:59;7.30;99.90
21312;DHT22;18076;52.154;10.570;2023-01-04T00:35:24;7.30;99.90
21312;DHT22;18076;52.154;10.570;2023-01-04T00:37:51;7.30;99.90
21312;DHT22;18076;52.154;10.570;2023-01-04T00:40:16;7.30;99.90
21312;DHT22;18076;52.154;10.570;2023-01-04T00:42:42;7.30;99.90
21312;DHT22;18076;52.154;10.570;2023-01-04T00:45:08;7.30;99.90
21312;DHT22;18076;52.154;10.570;2023-01-04T00:47:34;7.20;99.90
21312;DHT22;18076;52.154;10.570;2023-01-04T00:50:00;7.20;99.90
21312;DHT22;18076;52.154;10.570;2023-01-04T00:52:26;7.30;99.90
21312;DHT22;18076;52.154;10.570;2023-01-04T00:54:53;7.30;99.90
21312;DHT22;18076;52.154;10.570;2023-01-04T00:57:19;7.30;99.90
21312;DHT22;18076;52.154;10.570;2023-01-04T00:59:44;7.30;99.90
21312;DHT22;18076;52.154;10.570;2023-01-04T01:02:10;7.30;99.90
21312;DHT22;18076;52.154;10.570;2023-01-04T01:04:36;7.30;99.90
21312;DHT22;18076;52.154;10.570;2023-01-04T01:07:07;7.30;99.90
21312;DHT22;18076;52.154;10.570;2023-01-04T01:09:37;7.30;99.90
21312;DHT22;18076;52.154;10.570;2023-01-04T01:12:05;7.30;99.90
21312;DHT22;18076;52.154;10.570;2023-01-04T01:14:32;7.30;99.90
21312;DHT22;18076;52.154;10.570;2023-01-04T01:17:01;7.20;99.90
21312;DHT22;18076;52.154;10.570;2023-01-04T01:19:27;7.20;99.90
21312;DHT22;18076;52.154;10.570;2023-01-04T01:21:53;7.20;99.90
21312;DHT22;18076;52.154;10.570;2023-01-04T01:24:19;7.20;99.90
21312;DHT22;18076;52.154;10.570;2023-01-04T01:26:51;7.10;99.90
21312;DHT22;18076;52.154;10.570;2023-01-04T01:29:21;7.10;99.90
21312;DHT22;18076;52.154;10.570;2023-01-04T01:31:48;7.10;99.90
21312;DHT22;18076;52.154;10.570;2023-01-04T01:34:14;7.20;99.90
21312;DHT22;18076;52.154;10.570;2023-01-04T01:36:40;7.20;99.90
21312;DHT22;18076;52.154;10.570;2023-01-04T01:39:07;7.20;99.90
21312;DHT22;18076;52.154;10.570;2023-01-04T01:41:38;7.20;99.90
21312;DHT22;18076;52.154;10.570;2023-01-04T01:46:52;7.20;99.90
21312;DHT22;18076;52.154;10.570;2023-01-04T01:49:29;7.20;99.90
21312;DHT22;18076;52.154;10.570;2023-01-04T01:51:56;7.20;99.90
21312;DHT22;18076;52.154;10.570;2023-01-04T01:54:25;7.30;99.90
21312;DHT22;18076;52.154;10.570;2023-01-04T01:56:54;7.20;99.90
21312;DHT22;18076;52.154;10.570;2023-01-04T01:59:21;7.20;99.90
21312;DHT22;18076;52.154;10.570;2023-01-04T02:01:49;7.20;99.90
21312;DHT22;18076;52.154;10.570;2023-01-04T02:04:17;7.20;99.90
21312;DHT22;18076;52.154;10.570;2023-01-04T02:06:47;7.20;99.90
21312;DHT22;18076;52.154;10.570;2023-01-04T02:09:15;7.10;99.90
21312;DHT22;18076;52.154;10.570;2023-01-04T02:11:41;7.00;99.90
21312;DHT22;18076;52.154;10.570;2023-01-04T02:14:07;7.00;99.90
21312;DHT22;18076;52.154;10.570;2023-01-04T02:17:05;7.00;99.90
21312;DHT22;18076;52.154;10.570;2023-01-04T02:41:12;7.20;99.90
21312;DHT22;18076;52.154;10.570;2023-01-04T02:46:09;7.40;99.90
21312;DHT22;18076;52.154;10.570;2023-01-04T02:48:39;7.40;99.90
21312;DHT22;18076;52.154;10.570;2023-01-04T02:51:26;7.40;99.90
21312;DHT22;18076;52.154;10.570;2023-01-04T02:53:52;7.30;99.90
21312;DHT22;18076;52.154;10.570;2023-01-04T02:56:20;7.30;99.90
21312;DHT22;18076;52.154;10.570;2023-01-04T03:01:55;7.30;99.90
21312;DHT22;18076;52.154;10.570;2023-01-04T03:04:50;7.30;99.90
21312;DHT22;18076;52.154;10.570;2023-01-04T03:10:07;7.20;99.90
21312;DHT22;18076;52.154;10.570;2023-01-04T03:12:33;7.20;99.90
21312;DHT22;18076;52.154;10.570;2023-01-04T03:17:32;7.30;99.90
21312;DHT22;18076;52.154;10.570;2023-01-04T03:20:00;7.30;99.90
21312;DHT22;18076;52.154;10.570;2023-01-04T03:22:31;7.40;99.90
21312;DHT22;18076;52.154;10.570;2023-01-04T03:25:18;7.50;99.90
21312;DHT22;18076;52.154;10.570;2023-01-04T03:28:04;7.50;99.90
21312;DHT22;18076;52.154;10.570;2023-01-04T03:33:59;7.60;99.90
21312;DHT22;18076;52.154;10.570;2023-01-04T03:36:51;7.70;99.90
21312;DHT22;18076;52.154;10.570;2023-01-04T03:42:21;7.70;99.90
21312;DHT22;18076;52.154;10.570;2023-01-04T03:45:12;7.70;99.90
21312;DHT22;18076;52.154;10.570;2023-01-04T03:48:09;7.80;99.90
21312;DHT22;18076;52.154;10.570;2023-01-04T03:50:56;7.80;99.90
21312;DHT22;18076;52.154;10.570;2023-01-04T03:53:34;7.80;99.90
21312;DHT22;18076;52.154;10.570;2023-01-04T03:56:06;7.80;99.90
21312;DHT22;18076;52.154;10.570;2023-01-04T03:58:35;7.90;99.90
21312;DHT22;18076;52.154;10.570;2023-01-04T04:01:08;7.90;99.90
21312;DHT22;18076;52.154;10.570;2023-01-04T04:03:34;7.90;99.90
21312;DHT22;18076;52.154;10.570;2023-01-04T04:06:19;7.90;99.90
21312;DHT22;18076;52.154;10.570;2023-01-04T04:09:04;7.90;99.90
21312;DHT22;18076;52.154;10.570;2023-01-04T04:11:33;8.00;99.90
21312;DHT22;18076;52.154;10.570;2023-01-04T04:13:59;8.10;99.90
21312;DHT22;18076;52.154;10.570;2023-01-04T04:16:25;8.10;99.90
21312;DHT22;18076;52.154;10.570;2023-01-04T04:18:51;8.10;99.90
21312;DHT22;18076;52.154;10.570;2023-01-04T04:21:19;8.20;99.90
21312;DHT22;18076;52.154;10.570;2023-01-04T04:23:47;8.20;99.90
21312;DHT22;18076;52.154;10.570;2023-01-04T04:26:14;8.20;99.90
21312;DHT22;18076;52.154;10.570;2023-01-04T04:28:40;8.30;99.90
21312;DHT22;18076;52.154;10.570;2023-01-04T04:31:08;8.30;99.90
21312;DHT22;18076;52.154;10.570;2023-01-04T04:33:35;8.30;99.90
21312;DHT22;18076;52.154;10.570;2023-01-04T04:36:02;8.20;99.90
21312;DHT22;18076;52.154;10.570;2023-01-04T04:38:32;8.20;99.90
21312;DHT22;18076;52.154;10.570;2023-01-04T04:40:59;8.20;99.90
21312;DHT22;18076;52.154;10.570;2023-01-04T04:43:43;8.20;99.90
21312;DHT22;18076;52.154;10.570;2023-01-04T04:46:09;8.10;99.90
21312;DHT22;18076;52.154;10.570;2023-01-04T04:48:35;8.10;99.90
21312;DHT22;18076;52.154;10.570;2023-01-04T04:51:04;8.20;99.90
21312;DHT22;18076;52.154;10.570;2023-01-04T04:53:34;8.30;99.90
21312;DHT22;18076;52.154;10.570;2023-01-04T04:56:02;8.30;99.90
21312;DHT22;18076;52.154;10.570;2023-01-04T04:58:31;8.30;99.90
21312;DHT22;18076;52.154;10.570;2023-01-04T05:01:03;8.30;99.90
21312;DHT22;18076;52.154;10.570;2023-01-04T05:03:29;8.30;99.90
21312;DHT22;18076;52.154;10.570;2023-01-04T05:05:55;8.40;99.90
21312;DHT22;18076;52.154;10.570;2023-01-04T05:08:23;8.30;99.90
21312;DHT22;18076;52.154;10.570;2023-01-04T05:10:48;8.40;99.90
21312;DHT22;18076;52.154;10.570;2023-01-04T05:13:15;8.30;99.90
21312;DHT22;18076;52.154;10.570;2023-01-04T05:15:42;8.40;99.90
21312;DHT22;18076;52.154;10.570;2023-01-04T05:18:09;8.30;99.90
21312;DHT22;18076;52.154;10.570;2023-01-04T05:20:35;8.30;99.90
21312;DHT22;18076;52.154;10.570;2023-01-04T05:23:05;8.20;99.90
21312;DHT22;18076;52.154;10.570;2023-01-04T05:25:31;8.20;99.90
21312;DHT22;18076;52.154;10.570;2023-01-04T05:27:57;8.20;99.90
21312;DHT22;18076;52.154;10.570;2023-01-04T05:30:23;8.20;99.90
21312;DHT22;18076;52.154;10.570;2023-01-04T05:33:08;8.10;99.90
21312;DHT22;18076;52.154;10.570;2023-01-04T05:35:37;8.10;99.90
21312;DHT22;18076;52.154;10.570;2023-01-04T05:38:09;8.10;99.90
21312;DHT22;18076;52.154;10.570;2023-01-04T05:40:40;8.10;99.90
21312;DHT22;18076;52.154;10.570;2023-01-04T05:43:10;8.10;99.90
21312;DHT22;18076;52.154;10.570;2023-01-04T05:45:38;8.10;99.90
21312;DHT22;18076;52.154;10.570;2023-01-04T05:48:09;8.10;99.90
21312;DHT22;18076;52.154;10.570;2023-01-04T05:50:38;8.10;99.90
21312;DHT22;18076;52.154;10.570;2023-01-04T05:53:04;8.10;99.90
21312;DHT22;18076;52.154;10.570;2023-01-04T05:55:43;8.10;99.90
21312;DHT22;18076;52.154;10.570;2023-01-04T05:58:09;8.10;99.90
21312;DHT22;18076;52.154;10.570;2023-01-04T06:00:45;8.00;99.90
21312;DHT22;18076;52.154;10.570;2023-01-04T06:03:10;8.00;99.90
21312;DHT22;18076;52.154;10.570;2023-01-04T06:05:36;8.10;99.90
21312;DHT22;18076;52.154;10.570;2023-01-04T06:08:02;8.10;99.90
21312;DHT22;18076;52.154;10.570;2023-01-04T06:10:30;8.20;99.90
21312;DHT22;18076;52.154;10.570;2023-01-04T06:12:57;8.20;99.90
21312;DHT22;18076;52.154;10.570;2023-01-04T06:15:26;8.20;99.90
21312;DHT22;18076;52.154;10.570;2023-01-04T06:17:53;8.20;99.90
21312;DHT22;18076;52.154;10.570;2023-01-04T06:20:18;8.20;99.90
21312;DHT22;18076;52.154;10.570;2023-01-04T06:22:46;8.20;99.90
21312;DHT22;18076;52.154;10.570;2023-01-04T06:25:11;8.20;99.90
21312;DHT22;18076;52.154;10.570;2023-01-04T06:27:37;8.20;99.90
21312;DHT22;18076;52.154;10.570;2023-01-04T06:30:04;8.30;99.90
21312;DHT22;18076;52.154;10.570;2023-01-04T06:32:35;8.30;99.90
21312;DHT22;18076;52.154;10.570;2023-01-04T06:35:03;8.30;99.90
21312;DHT22;18076;52.154;10.570;2023-01-04T06:37:35;8.30;99.90
21312;DHT22;18076;52.154;10.570;2023-01-04T06:40:01;8.30;99.90
21312;DHT22;18076;52.154;10.570;2023-01-04T06:42:27;8.30;99.90
21312;DHT22;18076;52.154;10.570;2023-01-04T06:45:09;8.20;99.90
21312;DHT22;18076;52.154;10.570;2023-01-04T06:47:35;8.20;99.90
21312;DHT22;18076;52.154;10.570;2023-01-04T06:50:01;8.20;99.90
21312;DHT22;18076;52.154;10.570;2023-01-04T06:52:28;8.20;99.90
21312;DHT22;18076;52.154;10.570;2023-01-04T06:54:55;8.20;99.90
21312;DHT22;18076;52.154;10.570;2023-01-04T06:57:22;8.30;99.90
21312;DHT22;18076;52.154;10.570;2023-01-04T06:59:51;8.30;99.90
21312;DHT22;18076;52.154;10.570;2023-01-04T07:02:21;8.30;99.90
21312;DHT22;18076;52.154;10.570;2023-01-04T07:04:53;8.30;99.90
21312;DHT22;18076;52.154;10.570;2023-01-04T07:07:20;8.30;99.90
21312;DHT22;18076;52.154;10.570;2023-01-04T07:09:48;8.40;99.90
21312;DHT22;18076;52.154;10.570;2023-01-04T07:12:15;8.50;99.90
21312;DHT22;18076;52.154;10.570;2023-01-04T07:14:41;8.50;99.90
21312;DHT22;18076;52.154;10.570;2023-01-04T07:17:09;8.50;99.90
21312;DHT22;18076;52.154;10.570;2023-01-04T07:19:40;8.50;99.90
21312;DHT22;18076;52.154;10.570;2023-01-04T07:22:08;8.70;99.90
21312;DHT22;18076;52.154;10.570;2023-01-04T07:24:38;8.70;99.90
21312;DHT22;18076;52.154;10.570;2023-01-04T07:27:10;8.70;99.90
21312;DHT22;18076;52.154;10.570;2023-01-04T07:29:37;8.80;99.90
21312;DHT22;18076;52.154;10.570;2023-01-04T07:32:03;8.80;99.90
21312;DHT22;18076;52.154;10.570;2023-01-04T07:34:29;8.70;99.90
21312;DHT22;18076;52.154;10.570;2023-01-04T07:36:59;8.80;99.90
21312;DHT22;18076;52.154;10.570;2023-01-04T07:39:24;8.80;99.90
21312;DHT22;18076;52.154;10.570;2023-01-04T07:41:50;8.80;99.90
21312;DHT22;18076;52.154;10.570;2023-01-04T07:44:21;8.80;99.90
21312;DHT22;18076;52.154;10.570;2023-01-04T07:46:52;8.80;99.90
21312;DHT22;18076;52.154;10.570;2023-01-04T07:49:17;8.80;99.90
21312;DHT22;18076;52.154;10.570;2023-01-04T07:51:44;8.80;99.90
21312;DHT22;18076;52.154;10.570;2023-01-04T07:54:11;8.80;99.90
21312;DHT22;18076;52.154;10.570;2023-01-04T07:56:40;8.80;99.90
21312;DHT22;18076;52.154;10.570;2023-01-04T07:59:09;8.80;99.90
21312;DHT22;18076;52.154;10.570;2023-01-04T08:01:38;8.80;99.90
21312;DHT22;18076;52.154;10.570;2023-01-04T08:04:06;8.80;99.90
21312;DHT22;18076;52.154;10.570;2023-01-04T08:06:35;8.80;99.90
21312;DHT22;18076;52.154;10.570;2023-01-04T08:09:02;8.80;99.90
21312;DHT22;18076;52.154;10.570;2023-01-04T08:11:29;8.80;99.90
21312;DHT22;18076;52.154;10.570;2023-01-04T08:13:54;8.80;99.90
21312;DHT22;18076;52.154;10.570;2023-01-04T08:16:27;8.70;99.90
21312;DHT22;18076;52.154;10.570;2023-01-04T08:18:57;8.70;99.90
21312;DHT22;18076;52.154;10.570;2023-01-04T08:21:23;8.70;99.90
21312;DHT22;18076;52.154;10.570;2023-01-04T08:23:50;8.70;99.90
21312;DHT22;18076;52.154;10.570;2023-01-04T08:26:17;8.70;99.90
21312;DHT22;18076;52.154;10.570;2023-01-04T08:28:43;8.80;99.90
21312;DHT22;18076;52.154;10.570;2023-01-04T08:31:13;8.80;99.90
21312;DHT22;18076;52.154;10.570;2023-01-04T08:33:40;8.80;99.90
21312;DHT22;18076;52.154;10.570;2023-01-04T08:36:16;8.80;99.90
21312;DHT22;18076;52.154;10.570;2023-01-04T08:38:42;8.70;99.90
21312;DHT22;18076;52.154;10.570;2023-01-04T08:41:08;8.80;99.90
21312;DHT22;18076;52.154;10.570;2023-01-04T08:43:34;8.80;99.90
21312;DHT22;18076;52.154;10.570;2023-01-04T08:46:04;8.80;99.90
21312;DHT22;18076;52.154;10.570;2023-01-04T08:48:32;8.80;99.90
21312;DHT22;18076;52.154;10.570;2023-01-04T08:51:01;8.80;99.90
21312;DHT22;18076;52.154;10.570;2023-01-04T08:53:31;8.80;99.90
21312;DHT22;18076;52.154;10.570;2023-01-04T08:55:57;8.90;99.90
21312;DHT22;18076;52.154;10.570;2023-01-04T08:58:25;8.90;99.90
21312;DHT22;18076;52.154;10.570;2023-01-04T09:01:06;8.90;99.90
21312;DHT22;18076;52.154;10.570;2023-01-04T09:03:36;8.90;99.90
21312;DHT22;18076;52.154;10.570;2023-01-04T09:06:14;8.90;99.90
21312;DHT22;18076;52.154;10.570;2023-01-04T09:08:43;8.90;99.90
21312;DHT22;18076;52.154;10.570;2023-01-04T09:11:13;8.90;99.90
21312;DHT22;18076;52.154;10.570;2023-01-04T09:13:39;8.90;99.90
21312;DHT22;18076;52.154;10.570;2023-01-04T09:16:07;8.90;99.90
21312;DHT22;18076;52.154;10.570;2023-01-04T09:18:35;8.90;99.90
21312;DHT22;18076;52.154;10.570;2023-01-04T09:21:07;8.90;99.90
21312;DHT22;18076;52.154;10.570;2023-01-04T09:23:36;8.90;99.90
21312;DHT22;18076;52.154;10.570;2023-01-04T09:26:06;8.90;99.90
21312;DHT22;18076;52.154;10.570;2023-01-04T09:28:34;8.90;99.90
21312;DHT22;18076;52.154;10.570;2023-01-04T09:31:07;8.90;99.90
21312;DHT22;18076;52.154;10.570;2023-01-04T09:33:36;8.90;99.90
21312;DHT22;18076;52.154;10.570;2023-01-04T09:36:06;8.90;99.90
21312;DHT22;18076;52.154;10.570;2023-01-04T09:38:34;9.00;99.90
21312;DHT22;18076;52.154;10.570;2023-01-04T09:41:03;9.00;99.90
21312;DHT22;18076;52.154;10.570;2023-01-04T09:43:36;8.90;99.90
21312;DHT22;18076;52.154;10.570;2023-01-04T09:46:06;8.80;99.90
21312;DHT22;18076;52.154;10.570;2023-01-04T09:48:38;8.70;99.90
21312;DHT22;18076;52.154;10.570;2023-01-04T09:51:10;8.60;99.90
21312;DHT22;18076;52.154;10.570;2023-01-04T09:53:38;8.50;99.90
21312;DHT22;18076;52.154;10.570;2023-01-04T09:56:16;8.50;99.90
21312;DHT22;18076;52.154;10.570;2023-01-04T09:58:43;8.50;99.90
21312;DHT22;18076;52.154;10.570;2023-01-04T10:03:36;8.50;99.90
21312;DHT22;18076;52.154;10.570;2023-01-04T10:06:04;8.50;99.90
21312;DHT22;18076;52.154;10.570;2023-01-04T10:08:30;8.60;99.90
21312;DHT22;18076;52.154;10.570;2023-01-04T10:11:15;8.60;99.90
21312;DHT22;18076;52.154;10.570;2023-01-04T10:18:48;8.80;99.90
21312;DHT22;18076;52.154;10.570;2023-01-04T10:26:30;9.00;99.90
21312;DHT22;18076;52.154;10.570;2023-01-04T10:31:50;9.00;99.90
21312;DHT22;18076;52.154;10.570;2023-01-04T10:39:41;9.10;99.90
21312;DHT22;18076;52.154;10.570;2023-01-04T10:47:49;9.20;99.90
21312;DHT22;18076;52.154;10.570;2023-01-04T10:50:26;9.30;99.90
21312;DHT22;18076;52.154;10.570;2023-01-04T10:53:01;9.40;99.90
21312;DHT22;18076;52.154;10.570;2023-01-04T10:55:34;9.40;99.90
21312;DHT22;18076;52.154;10.570;2023-01-04T10:58:12;9.50;99.90
21312;DHT22;18076;52.154;10.570;2023-01-04T11:00:49;9.50;99.90
21312;DHT22;18076;52.154;10.570;2023-01-04T11:03:19;9.50;99.90
21312;DHT22;18076;52.154;10.570;2023-01-04T11:05:48;9.50;99.90
21312;DHT22;18076;52.154;10.570;2023-01-04T11:08:20;9.50;99.90
21312;DHT22;18076;52.154;10.570;2023-01-04T11:10:52;9.50;99.90
21312;DHT22;18076;52.154;10.570;2023-01-04T11:13:21;9.40;99.90
21312;DHT22;18076;52.154;10.570;2023-01-04T11:15:49;9.40;99.90
21312;DHT22;18076;52.154;10.570;2023-01-04T11:18:16;9.30;99.90
21312;DHT22;18076;52.154;10.570;2023-01-04T11:20:42;9.30;99.90
21312;DHT22;18076;52.154;10.570;2023-01-04T11:25:42;9.20;99.90
21312;DHT22;18076;52.154;10.570;2023-01-04T11:28:16;9.10;99.90
21312;DHT22;18076;52.154;10.570;2023-01-04T11:33:20;9.00;99.90
21312;DHT22;18076;52.154;10.570;2023-01-04T11:35:55;8.90;99.90
21312;DHT22;18076;52.154;10.570;2023-01-04T11:38:28;8.90;99.90
21312;DHT22;18076;52.154;10.570;2023-01-04T11:41:03;9.00;99.90
21312;DHT22;18076;52.154;10.570;2023-01-04T11:43:30;9.10;99.90
21312;DHT22;18076;52.154;10.570;2023-01-04T11:48:36;9.20;99.90
21312;DHT22;18076;52.154;10.570;2023-01-04T11:51:27;9.30;99.90
21312;DHT22;18076;52.154;10.570;2023-01-04T11:56:27;9.50;99.90
21312;DHT22;18076;52.154;10.570;2023-01-04T11:59:27;9.60;99.90
21312;DHT22;18076;52.154;10.570;2023-01-04T12:01:49;9.60;99.90
21312;DHT22;18076;52.154;10.570;2023-01-04T12:04:23;9.60;99.90
21312;DHT22;18076;52.154;10.570;2023-01-04T12:07:01;9.60;99.90
21312;DHT22;18076;52.154;10.570;2023-01-04T12:09:28;9.60;99.90
21312;DHT22;18076;52.154;10.570;2023-01-04T12:11:58;9.60;99.90
21312;DHT22;18076;52.154;10.570;2023-01-04T12:14:25;9.60;99.90
21312;DHT22;18076;52.154;10.570;2023-01-04T12:17:10;9.60;99.90
21312;DHT22;18076;52.154;10.570;2023-01-04T12:19:41;9.60;99.90
21312;DHT22;18076;52.154;10.570;2023-01-04T12:22:24;9.50;99.90
21312;DHT22;18076;52.154;10.570;2023-01-04T12:24:54;9.50;99.90
21312;DHT22;18076;52.154;10.570;2023-01-04T12:27:24;9.50;99.90
21312;DHT22;18076;52.154;10.570;2023-01-04T12:30:01;9.50;99.90
21312;DHT22;18076;52.154;10.570;2023-01-04T12:34:54;9.60;99.90
21312;DHT22;18076;52.154;10.570;2023-01-04T12:45:38;9.90;99.90
21312;DHT22;18076;52.154;10.570;2023-01-04T12:53:52;10.00;99.90
21312;DHT22;18076;52.154;10.570;2023-01-04T12:56:19;9.90;99.90
21312;DHT22;18076;52.154;10.570;2023-01-04T13:01:29;9.90;99.90
21312;DHT22;18076;52.154;10.570;2023-01-04T13:03:57;9.80;99.90
21312;DHT22;18076;52.154;10.570;2023-01-04T13:06:24;9.90;99.90
21312;DHT22;18076;52.154;10.570;2023-01-04T13:08:51;9.80;99.90
21312;DHT22;18076;52.154;10.570;2023-01-04T13:13:52;9.80;99.90
21312;DHT22;18076;52.154;10.570;2023-01-04T13:19:19;9.80;99.90
21312;DHT22;18076;52.154;10.570;2023-01-04T13:21:45;9.80;99.90
21312;DHT22;18076;52.154;10.570;2023-01-04T13:26:45;9.80;99.90
21312;DHT22;18076;52.154;10.570;2023-01-04T13:29:28;9.90;99.90
21312;DHT22;18076;52.154;10.570;2023-01-04T13:31:55;9.90;99.90
21312;DHT22;18076;52.154;10.570;2023-01-04T13:34:29;9.90;99.90
21312;DHT22;18076;52.154;10.570;2023-01-04T13:39:28;9.80;99.90
21312;DHT22;18076;52.154;10.570;2023-01-04T13:41:55;9.90;99.90
21312;DHT22;18076;52.154;10.570;2023-01-04T13:46:55;9.80;99.90
21312;DHT22;18076;52.154;10.570;2023-01-04T13:49:21;9.80;99.90
21312;DHT22;18076;52.154;10.570;2023-01-04T13:51:51;9.80;99.90
21312;DHT22;18076;52.154;10.570;2023-01-04T13:54:19;9.80;99.90
21312;DHT22;18076;52.154;10.570;2023-01-04T13:56:44;9.80;99.90
21312;DHT22;18076;52.154;10.570;2023-01-04T13:59:13;9.80;99.90
21312;DHT22;18076;52.154;10.570;2023-01-04T14:01:44;9.80;99.90
21312;DHT22;18076;52.154;10.570;2023-01-04T14:04:25;9.80;99.90
21312;DHT22;18076;52.154;10.570;2023-01-04T14:06:53;9.80;99.90
21312;DHT22;18076;52.154;10.570;2023-01-04T14:09:31;9.70;99.90
21312;DHT22;18076;52.154;10.570;2023-01-04T14:12:00;9.70;99.90
21312;DHT22;18076;52.154;10.570;2023-01-04T14:19:55;9.70;99.90
21312;DHT22;18076;52.154;10.570;2023-01-04T14:24:52;9.70;99.90
21312;DHT22;18076;52.154;10.570;2023-01-04T14:27:40;9.70;99.90
21312;DHT22;18076;52.154;10.570;2023-01-04T14:32:51;9.70;99.90
21312;DHT22;18076;52.154;10.570;2023-01-04T14:35:17;9.70;99.90
21312;DHT22;18076;52.154;10.570;2023-01-04T14:37:43;9.70;99.90
21312;DHT22;18076;52.154;10.570;2023-01-04T14:40:13;9.70;99.90
21312;DHT22;18076;52.154;10.570;2023-01-04T14:42:47;9.70;99.90
21312;DHT22;18076;52.154;10.570;2023-01-04T14:45:14;9.70;99.90
21312;DHT22;18076;52.154;10.570;2023-01-04T14:47:40;9.70;99.90
21312;DHT22;18076;52.154;10.570;2023-01-04T14:50:14;9.70;99.90
21312;DHT22;18076;52.154;10.570;2023-01-04T14:52:48;9.70;99.90
21312;DHT22;18076;52.154;10.570;2023-01-04T14:55:14;9.70;99.90
21312;DHT22;18076;52.154;10.570;2023-01-04T14:57:40;9.70;99.90
21312;DHT22;18076;52.154;10.570;2023-01-04T15:00:14;9.70;99.90
21312;DHT22;18076;52.154;10.570;2023-01-04T15:02:41;9.70;99.90
21312;DHT22;18076;52.154;10.570;2023-01-04T15:05:13;9.80;99.90
21312;DHT22;18076;52.154;10.570;2023-01-04T15:07:39;9.80;99.90
21312;DHT22;18076;52.154;10.570;2023-01-04T15:10:14;9.80;99.90
21312;DHT22;18076;52.154;10.570;2023-01-04T15:12:42;9.80;99.90
21312;DHT22;18076;52.154;10.570;2023-01-04T15:15:11;9.80;99.90
21312;DHT22;18076;52.154;10.570;2023-01-04T15:17:37;9.80;99.90
21312;DHT22;18076;52.154;10.570;2023-01-04T15:20:06;9.70;99.90
21312;DHT22;18076;52.154;10.570;2023-01-04T15:22:33;9.70;99.90
21312;DHT22;18076;52.154;10.570;2023-01-04T15:24:58;9.70;99.90
21312;DHT22;18076;52.154;10.570;2023-01-04T15:27:24;9.70;99.90
21312;DHT22;18076;52.154;10.570;2023-01-04T15:29:53;9.70;99.90
21312;DHT22;18076;52.154;10.570;2023-01-04T15:32:19;9.60;99.90
21312;DHT22;18076;52.154;10.570;2023-01-04T15:34:47;9.60;99.90
21312;DHT22;18076;52.154;10.570;2023-01-04T15:37:13;9.70;99.90
21312;DHT22;18076;52.154;10.570;2023-01-04T15:39:41;9.70;99.90
21312;DHT22;18076;52.154;10.570;2023-01-04T15:42:10;9.70;99.90
21312;DHT22;18076;52.154;10.570;2023-01-04T15:44:56;9.70;99.90
21312;DHT22;18076;52.154;10.570;2023-01-04T15:47:27;9.90;99.90
21312;DHT22;18076;52.154;10.570;2023-01-04T15:50:01;9.90;99.90
21312;DHT22;18076;52.154;10.570;2023-01-04T15:52:27;10.00;99.90
21312;DHT22;18076;52.154;10.570;2023-01-04T15:54:54;10.10;99.90
21312;DHT22;18076;52.154;10.570;2023-01-04T15:57:22;10.20;99.90
21312;DHT22;18076;52.154;10.570;2023-01-04T15:59:55;10.30;99.90
21312;DHT22;18076;52.154;10.570;2023-01-04T16:02:24;10.30;99.90
21312;DHT22;18076;52.154;10.570;2023-01-04T16:04:54;10.30;99.90
21312;DHT22;18076;52.154;10.570;2023-01-04T16:07:21;10.50;99.90
21312;DHT22;18076;52.154;10.570;2023-01-04T16:09:47;10.50;99.90
21312;DHT22;18076;52.154;10.570;2023-01-04T16:12:13;10.60;99.90
21312;DHT22;18076;52.154;10.570;2023-01-04T16:14:58;10.70;99.90
21312;DHT22;18076;52.154;10.570;2023-01-04T16:17:25;10.80;99.90
21312;DHT22;18076;52.154;10.570;2023-01-04T16:19:57;10.80;99.90
21312;DHT22;18076;52.154;10.570;2023-01-04T16:22:27;10.80;99.90
21312;DHT22;18076;52.154;10.570;2023-01-04T16:24:54;10.80;99.90
21312;DHT22;18076;52.154;10.570;2023-01-04T16:27:23;10.90;99.90
21312;DHT22;18076;52.154;10.570;2023-01-04T16:29:51;10.90;99.90
21312;DHT22;18076;52.154;10.570;2023-01-04T16:32:18;10.90;99.90
21312;DHT22;18076;52.154;10.570;2023-01-04T16:34:43;10.90;99.90
21312;DHT22;18076;52.154;10.570;2023-01-04T16:37:13;11.00;99.90
21312;DHT22;18076;52.154;10.570;2023-01-04T16:39:46;11.00;99.90
21312;DHT22;18076;52.154;10.570;2023-01-04T16:42:14;11.00;99.90
21312;DHT22;18076;52.154;10.570;2023-01-04T16:44:46;11.00;99.90
21312;DHT22;18076;52.154;10.570;2023-01-04T16:47:12;11.10;99.90
21312;DHT22;18076;52.154;10.570;2023-01-04T16:49:38;11.10;99.90
21312;DHT22;18076;52.154;10.570;2023-01-04T16:52:13;11.20;99.90
21312;DHT22;18076;52.154;10.570;2023-01-04T16:54:50;11.20;99.90
21312;DHT22;18076;52.154;10.570;2023-01-04T16:57:16;11.20;99.90
21312;DHT22;18076;52.154;10.570;2023-01-04T16:59:42;11.30;99.90
21312;DHT22;18076;52.154;10.570;2023-01-04T17:02:12;11.30;99.90
21312;DHT22;18076;52.154;10.570;2023-01-04T17:04:38;11.40;99.90
21312;DHT22;18076;52.154;10.570;2023-01-04T17:07:08;11.40;99.90
21312;DHT22;18076;52.154;10.570;2023-01-04T17:09:41;11.40;99.90
21312;DHT22;18076;52.154;10.570;2023-01-04T17:12:13;11.40;99.90
21312;DHT22;18076;52.154;10.570;2023-01-04T17:14:39;11.30;99.90
21312;DHT22;18076;52.154;10.570;2023-01-04T17:17:08;11.30;99.90
21312;DHT22;18076;52.154;10.570;2023-01-04T17:19:35;11.20;99.90
21312;DHT22;18076;52.154;10.570;2023-01-04T17:22:01;11.20;99.90
21312;DHT22;18076;52.154;10.570;2023-01-04T17:24:28;11.20;99.90
21312;DHT22;18076;52.154;10.570;2023-01-04T17:26:57;11.20;99.90
21312;DHT22;18076;52.154;10.570;2023-01-04T17:29:28;11.20;99.90
21312;DHT22;18076;52.154;10.570;2023-01-04T17:31:57;11.20;99.90
21312;DHT22;18076;52.154;10.570;2023-01-04T17:34:28;11.30;99.90
21312;DHT22;18076;52.154;10.570;2023-01-04T17:36:57;11.30;99.90
21312;DHT22;18076;52.154;10.570;2023-01-04T17:39:27;11.30;99.90
21312;DHT22;18076;52.154;10.570;2023-01-04T17:41:56;11.20;99.90
21312;DHT22;18076;52.154;10.570;2023-01-04T17:44:25;11.20;99.90
21312;DHT22;18076;52.154;10.570;2023-01-04T17:46:56;11.20;99.90